Meteo Giornale » Osservazioni meteo Germania » Oberpfaffenhofen

ore: 03:50 - Osservazioni Meteo Oberpfaffenhofen
Lat. 48° 5' N Lon. 11° 17' E Alt. 600 metri s.l.m.

coperto Europe/Berlin

14 °C

Coperto

Temp. 24 Ore

14 °C

28 °C

Nord

3.7 Km/h

Dew point 14 °C

Umidità 100 %

Visibilità  10 Km

Il sole sorge alle ore 05:13

Il sole tramonta alle ore 21:20

Data e Ora Cielo e Fenomeni T °C DP °C Um. % Pres. hPa Vis. km Vento km/h
Oggi h: 03:50 coperto Coperto 14 14 100 1012 10 N 3.7
Oggi h: 03:20 molto_nuvoloso Molto Nuvoloso 15 14 93 1012 10 S/SE 7.4
Oggi h: 02:50 coperto Coperto 15 15 100 1012 10 S/SO 11.1
Oggi h: 02:20 coperto Coperto 15 15 100 1013 10 S/SO 14.8
Oggi h: 01:50 coperto Coperto 15 15 100 1013 10 S 13
Oggi h: 01:20 molto_nuvoloso Molto Nuvoloso 15 15 100 1013 10 S 13
Oggi h: 00:50 poco_nuvoloso Poco Nuvoloso 15 14 93 1013 10 O/SO 7.4
Oggi h: 00:20 molto_nuvoloso Molto Nuvoloso 16 15 93 1012 10 NO 14.8
Ieri h: 23:50 coperto Coperto 16 14 87 1012 10 N/NO 29.6
Ieri h: 23:20 coperto Coperto 15 14 93 1012 4 O 29.6
Ieri h: 22:50 coperto Coperto 19 15 77 1010 10 O 25.9
Ieri h: 22:20 coperto Coperto 20 16 77 1008 10 N 5.5
Ieri h: 21:50 coperto Coperto 20 16 77 1007 10 N/NE 16.7
Ieri h: 21:20 coperto Coperto 23 14 56 1007 10 N/NO 16.7
Ieri h: 20:50 coperto Coperto 24 13 50 1007 10 N 22.2
Ieri h: 20:20 molto_nuvoloso Molto Nuvoloso 24 14 53 1008 10 N 18.5
Ieri h: 19:50 nuvoloso_temporali Temporale nelle Vicinanze 25 14 50 1008 10 N 16.7
Ieri h: 19:20 nuvoloso Nuvoloso 26 14 47 1008 10 N 16.7
Ieri h: 18:50 poco_nuvoloso Poco Nuvoloso 26 14 47 1008 10 N/NO 18.5
Ieri h: 18:20 sereno Sereno 27 13 42 1008 10 N/NE 14.8
Ieri h: 17:50 poco_nuvoloso Poco Nuvoloso 27 13 42 1009 10 N/NO 9.3
Ieri h: 17:20 poco_nuvoloso Poco Nuvoloso 28 14 42 1009 10 N/NO 13
Ieri h: 16:50 poco_nuvoloso Poco Nuvoloso 27 14 44 1009 10 N 14.8
Ieri h: 16:20 poco_nuvoloso Poco Nuvoloso 27 13 42 1009 10 NO 9.3
Ieri h: 15:50 poco_nuvoloso Poco Nuvoloso 27 14 44 1010 10 N 7.4
Ieri h: 15:20 poco_nuvoloso Poco Nuvoloso 27 13 42 1009 10 O/NO 13
Ieri h: 14:50 poco_nuvoloso Poco Nuvoloso 27 13 42 1009 10 N 13
Ieri h: 14:20 poco_nuvoloso Poco Nuvoloso 26 13 44 1010 10 N 7.4
Ieri h: 13:50 sereno Sereno 26 13 44 1010 10 N/NE 11.1
Ieri h: 13:20 sereno Sereno 26 12 41 1010 10 N 9.3
Ieri h: 12:50 sereno Sereno 25 11 41 1011 10 N 7.4
Ieri h: 12:20 sereno Sereno 24 12 47 1009 10 O 9.3
Ieri h: 11:50 sereno Sereno 25 13 47 1011 10 O/SO 11.1
Ieri h: 11:20 sereno Sereno 24 13 50 1011 10 SO 9.3
Ieri h: 10:50 sereno Sereno 23 13 53 1012 10 N 5.5
Ieri h: 10:20 sereno Sereno 22 13 56 1012 10 O 11.1
Ieri h: 09:50 sereno Sereno 22 13 56 1012 10 O 9.3
Ieri h: 09:20 sereno Sereno 21 13 60 1010 10 O/SO 14.8
Ieri h: 08:50 sereno Sereno 21 14 64 1011 10 O/SO 14.8
Ieri h: 08:20 sereno Sereno 21 14 64 1012 10 SO 9.3
Ieri h: 07:50 sereno Sereno 20 14 68 1011 10 SO 11.1
Ieri h: 07:20 sereno Sereno 19 15 77 1012 10 N 3.7
Ieri h: 06:20 coperto Coperto 18 14 77 1010 10 SO 13
Ieri h: 05:50 coperto Coperto 18 15 82 1010 10 O/SO 11.1
Ieri h: 05:20 coperto Coperto 18 16 88 1010 10 O/SO 7.4
Ieri h: 04:50 coperto Coperto 18 16 88 1010 10 O/SO 9.3